sensor_id;sensor_type;location;lat;lon;timestamp;pressure;altitude;pressure_sealevel;temperature;humidity
15382;BME280;7789;51.364;12.358;2023-05-09T00:01:21;100965.22;;;11.59;78.37
15382;BME280;7789;51.364;12.358;2023-05-09T00:06:27;100964.81;;;11.52;78.43
15382;BME280;7789;51.364;12.358;2023-05-09T00:11:36;100967.78;;;11.48;78.28
15382;BME280;7789;51.364;12.358;2023-05-09T00:16:46;100959.31;;;11.44;78.77
15382;BME280;7789;51.364;12.358;2023-05-09T00:21:52;100951.94;;;11.38;78.75
15382;BME280;7789;51.364;12.358;2023-05-09T00:26:59;100952.03;;;11.37;78.45
15382;BME280;7789;51.364;12.358;2023-05-09T00:32:11;100948.81;;;11.33;78.80
15382;BME280;7789;51.364;12.358;2023-05-09T00:37:19;100949.28;;;11.27;79.01
15382;BME280;7789;51.364;12.358;2023-05-09T00:42:27;100943.66;;;11.21;78.38
15382;BME280;7789;51.364;12.358;2023-05-09T00:47:37;100933.78;;;11.13;78.73
15382;BME280;7789;51.364;12.358;2023-05-09T00:52:48;100931.97;;;11.03;78.78
15382;BME280;7789;51.364;12.358;2023-05-09T00:57:55;100926.97;;;11.00;79.23
15382;BME280;7789;51.364;12.358;2023-05-09T01:03:03;100928.88;;;10.98;80.17
15382;BME280;7789;51.364;12.358;2023-05-09T01:08:12;100920.16;;;10.87;81.00
15382;BME280;7789;51.364;12.358;2023-05-09T01:13:35;100917.88;;;10.82;81.08
15382;BME280;7789;51.364;12.358;2023-05-09T01:18:48;100924.16;;;10.80;79.71
15382;BME280;7789;51.364;12.358;2023-05-09T01:24:06;100912.47;;;10.73;79.54
15382;BME280;7789;51.364;12.358;2023-05-09T01:29:35;100911.16;;;10.67;80.53
15382;BME280;7789;51.364;12.358;2023-05-09T01:34:43;100908.50;;;10.56;81.05
15382;BME280;7789;51.364;12.358;2023-05-09T01:39:52;100908.94;;;10.50;81.21
15382;BME280;7789;51.364;12.358;2023-05-09T01:45:04;100910.34;;;10.43;81.40
15382;BME280;7789;51.364;12.358;2023-05-09T01:50:11;100907.31;;;10.37;81.06
15382;BME280;7789;51.364;12.358;2023-05-09T01:55:22;100913.44;;;10.25;80.89
15382;BME280;7789;51.364;12.358;2023-05-09T02:00:31;100899.78;;;10.21;81.43
15382;BME280;7789;51.364;12.358;2023-05-09T02:05:42;100890.59;;;10.16;80.41
15382;BME280;7789;51.364;12.358;2023-05-09T02:10:52;100893.84;;;10.07;81.35
15382;BME280;7789;51.364;12.358;2023-05-09T02:16:02;100896.97;;;9.99;80.94
15382;BME280;7789;51.364;12.358;2023-05-09T02:21:07;100883.50;;;9.93;81.40
15382;BME280;7789;51.364;12.358;2023-05-09T02:26:22;100883.22;;;9.85;81.01
15382;BME280;7789;51.364;12.358;2023-05-09T02:31:30;100875.72;;;9.80;80.91
15382;BME280;7789;51.364;12.358;2023-05-09T02:36:40;100879.16;;;9.81;81.07
15382;BME280;7789;51.364;12.358;2023-05-09T02:41:52;100876.66;;;9.79;81.03
15382;BME280;7789;51.364;12.358;2023-05-09T02:46:59;100878.53;;;9.77;81.12
15382;BME280;7789;51.364;12.358;2023-05-09T02:52:08;100873.53;;;9.74;80.56
15382;BME280;7789;51.364;12.358;2023-05-09T02:57:14;100883.13;;;9.74;79.89
15382;BME280;7789;51.364;12.358;2023-05-09T03:02:25;100872.81;;;9.72;80.63
15382;BME280;7789;51.364;12.358;2023-05-09T03:07:35;100877.41;;;9.69;80.17
15382;BME280;7789;51.364;12.358;2023-05-09T03:12:44;100866.97;;;9.69;79.79
15382;BME280;7789;51.364;12.358;2023-05-09T03:18:00;100865.31;;;9.68;79.54
15382;BME280;7789;51.364;12.358;2023-05-09T03:23:09;100863.63;;;9.67;79.16
15382;BME280;7789;51.364;12.358;2023-05-09T03:28:20;100861.97;;;9.66;78.77
15382;BME280;7789;51.364;12.358;2023-05-09T03:33:34;100867.06;;;9.67;79.17
15382;BME280;7789;51.364;12.358;2023-05-09T03:38:43;100854.88;;;9.68;78.62
15382;BME280;7789;51.364;12.358;2023-05-09T03:43:52;100862.56;;;9.69;78.66
15382;BME280;7789;51.364;12.358;2023-05-09T03:49:00;100856.53;;;9.69;78.11
15382;BME280;7789;51.364;12.358;2023-05-09T03:54:06;100861.75;;;9.69;78.30
15382;BME280;7789;51.364;12.358;2023-05-09T03:59:16;100856.44;;;9.70;78.02
15382;BME280;7789;51.364;12.358;2023-05-09T04:04:23;100854.53;;;9.72;77.50
15382;BME280;7789;51.364;12.358;2023-05-09T04:09:31;100857.75;;;9.76;77.72
15382;BME280;7789;51.364;12.358;2023-05-09T04:14:38;100855.88;;;9.78;77.43
15382;BME280;7789;51.364;12.358;2023-05-09T04:19:55;100861.50;;;9.84;77.67
15382;BME280;7789;51.364;12.358;2023-05-09T04:25:08;100862.97;;;9.88;77.16
15382;BME280;7789;51.364;12.358;2023-05-09T04:30:19;100861.66;;;9.94;76.66
15382;BME280;7789;51.364;12.358;2023-05-09T04:35:33;100851.44;;;10.03;76.75
15382;BME280;7789;51.364;12.358;2023-05-09T04:40:41;100832.59;;;10.11;76.19
15382;BME280;7789;51.364;12.358;2023-05-09T04:45:48;100833.38;;;10.24;75.20
15382;BME280;7789;51.364;12.358;2023-05-09T04:50:55;100841.88;;;10.38;75.27
15382;BME280;7789;51.364;12.358;2023-05-09T04:56:08;100835.47;;;10.66;74.05
15382;BME280;7789;51.364;12.358;2023-05-09T05:01:36;100812.59;;;14.12;64.93
15382;BME280;7789;51.364;12.358;2023-05-09T05:06:59;100825.31;;;16.88;56.30
15382;BME280;7789;51.364;12.358;2023-05-09T05:12:14;100819.88;;;18.87;50.66
15382;BME280;7789;51.364;12.358;2023-05-09T05:17:29;100800.84;;;20.60;46.62
15382;BME280;7789;51.364;12.358;2023-05-09T05:22:36;100799.38;;;22.52;41.95
15382;BME280;7789;51.364;12.358;2023-05-09T05:27:43;100795.31;;;23.79;38.09
15382;BME280;7789;51.364;12.358;2023-05-09T05:32:51;100797.41;;;24.88;35.13
15382;BME280;7789;51.364;12.358;2023-05-09T05:37:59;100796.75;;;26.26;32.73
15382;BME280;7789;51.364;12.358;2023-05-09T05:43:07;100786.44;;;27.27;31.96
15382;BME280;7789;51.364;12.358;2023-05-09T05:48:15;100797.22;;;28.11;30.38
15382;BME280;7789;51.364;12.358;2023-05-09T05:53:22;100802.56;;;29.38;28.27
15382;BME280;7789;51.364;12.358;2023-05-09T05:58:28;100806.00;;;29.85;27.13
15382;BME280;7789;51.364;12.358;2023-05-09T06:03:37;100793.69;;;30.45;26.28
15382;BME280;7789;51.364;12.358;2023-05-09T06:09:01;100786.00;;;31.02;24.45
15382;BME280;7789;51.364;12.358;2023-05-09T06:14:07;100775.56;;;31.65;24.43
15382;BME280;7789;51.364;12.358;2023-05-09T06:19:22;100770.16;;;31.65;24.17
15382;BME280;7789;51.364;12.358;2023-05-09T06:24:46;100773.72;;;33.18;22.56
15382;BME280;7789;51.364;12.358;2023-05-09T06:29:55;100782.44;;;33.25;22.11
15382;BME280;7789;51.364;12.358;2023-05-09T06:35:02;100780.97;;;33.49;21.20
15382;BME280;7789;51.364;12.358;2023-05-09T06:40:23;100770.50;;;33.72;21.93
15382;BME280;7789;51.364;12.358;2023-05-09T06:45:30;100770.38;;;34.54;20.46
15382;BME280;7789;51.364;12.358;2023-05-09T06:50:35;100770.09;;;34.45;20.44
15382;BME280;7789;51.364;12.358;2023-05-09T06:55:50;100762.72;;;35.05;20.32
15382;BME280;7789;51.364;12.358;2023-05-09T07:00:57;100755.13;;;34.93;20.02
15382;BME280;7789;51.364;12.358;2023-05-09T07:06:07;100757.59;;;34.59;20.02
15382;BME280;7789;51.364;12.358;2023-05-09T07:11:16;100747.22;;;34.01;19.87
15382;BME280;7789;51.364;12.358;2023-05-09T07:16:27;100739.63;;;34.08;20.31
15382;BME280;7789;51.364;12.358;2023-05-09T07:21:33;100706.53;;;31.41;22.06
15382;BME280;7789;51.364;12.358;2023-05-09T07:26:41;100706.78;;;28.62;25.22
15382;BME280;7789;51.364;12.358;2023-05-09T07:31:46;100707.91;;;27.61;26.74
15382;BME280;7789;51.364;12.358;2023-05-09T07:36:51;100693.41;;;26.55;27.96
15382;BME280;7789;51.364;12.358;2023-05-09T07:42:00;100689.44;;;26.33;28.10
15382;BME280;7789;51.364;12.358;2023-05-09T07:47:06;100687.47;;;24.83;29.41
15382;BME280;7789;51.364;12.358;2023-05-09T07:52:11;100675.81;;;24.20;30.59
15382;BME280;7789;51.364;12.358;2023-05-09T07:57:21;100674.50;;;24.87;30.79
15382;BME280;7789;51.364;12.358;2023-05-09T08:02:30;100667.78;;;24.00;31.79
15382;BME280;7789;51.364;12.358;2023-05-09T08:07:36;100661.97;;;23.17;32.61
15382;BME280;7789;51.364;12.358;2023-05-09T08:12:43;100655.22;;;22.87;33.36
15382;BME280;7789;51.364;12.358;2023-05-09T08:17:49;100655.84;;;23.90;31.18
15382;BME280;7789;51.364;12.358;2023-05-09T08:22:54;100635.78;;;22.93;33.15
15382;BME280;7789;51.364;12.358;2023-05-09T08:28:08;100633.88;;;22.26;34.33
15382;BME280;7789;51.364;12.358;2023-05-09T08:33:12;100618.91;;;22.86;33.24
15382;BME280;7789;51.364;12.358;2023-05-09T08:38:17;100613.66;;;22.32;33.93
15382;BME280;7789;51.364;12.358;2023-05-09T08:43:28;100615.31;;;21.84;35.04
15382;BME280;7789;51.364;12.358;2023-05-09T08:48:37;100606.88;;;21.81;34.91
15382;BME280;7789;51.364;12.358;2023-05-09T08:53:44;100607.78;;;21.67;35.80
15382;BME280;7789;51.364;12.358;2023-05-09T08:58:53;100607.88;;;21.02;36.58
15382;BME280;7789;51.364;12.358;2023-05-09T09:03:59;100602.94;;;20.70;37.54
15382;BME280;7789;51.364;12.358;2023-05-09T09:09:06;100592.28;;;20.42;37.93
15382;BME280;7789;51.364;12.358;2023-05-09T09:20:01;100582.13;;;20.31;38.52
15382;BME280;7789;51.364;12.358;2023-05-09T09:25:08;100579.28;;;20.03;38.82
15382;BME280;7789;51.364;12.358;2023-05-09T09:30:15;100578.91;;;20.06;38.24
15382;BME280;7789;51.364;12.358;2023-05-09T09:35:27;100564.78;;;20.06;37.97
15382;BME280;7789;51.364;12.358;2023-05-09T09:40:48;100553.13;;;19.92;39.06
15382;BME280;7789;51.364;12.358;2023-05-09T09:46:00;100548.56;;;20.01;39.06
15382;BME280;7789;51.364;12.358;2023-05-09T09:51:10;100553.13;;;19.92;38.75
15382;BME280;7789;51.364;12.358;2023-05-09T09:56:18;100547.72;;;19.86;39.40
15382;BME280;7789;51.364;12.358;2023-05-09T10:01:25;100541.63;;;20.14;39.25
15382;BME280;7789;51.364;12.358;2023-05-09T10:06:51;100542.47;;;20.15;39.06
15382;BME280;7789;51.364;12.358;2023-05-09T10:12:02;100523.78;;;20.08;39.64
15382;BME280;7789;51.364;12.358;2023-05-09T10:17:13;100515.34;;;20.05;40.03
15382;BME280;7789;51.364;12.358;2023-05-09T10:22:33;100504.56;;;20.21;40.07
15382;BME280;7789;51.364;12.358;2023-05-09T10:27:47;100500.91;;;20.36;39.83
15382;BME280;7789;51.364;12.358;2023-05-09T10:33:02;100503.38;;;20.38;38.97
15382;BME280;7789;51.364;12.358;2023-05-09T10:38:10;100489.34;;;20.44;38.92
15382;BME280;7789;51.364;12.358;2023-05-09T10:43:17;100483.81;;;20.60;38.38
15382;BME280;7789;51.364;12.358;2023-05-09T10:48:25;100482.78;;;20.75;38.48
15382;BME280;7789;51.364;12.358;2023-05-09T10:53:46;100463.16;;;20.76;38.25
15382;BME280;7789;51.364;12.358;2023-05-09T10:58:52;100454.63;;;20.80;38.15
15382;BME280;7789;51.364;12.358;2023-05-09T11:03:59;100442.47;;;20.86;37.71
15382;BME280;7789;51.364;12.358;2023-05-09T11:14:40;100437.19;;;21.13;37.78
15382;BME280;7789;51.364;12.358;2023-05-09T11:19:57;100419.38;;;21.14;38.00
15382;BME280;7789;51.364;12.358;2023-05-09T11:25:03;100401.28;;;21.24;37.72
15382;BME280;7789;51.364;12.358;2023-05-09T11:30:10;100391.72;;;21.36;37.88
15382;BME280;7789;51.364;12.358;2023-05-09T11:35:16;100398.47;;;21.32;37.47
15382;BME280;7789;51.364;12.358;2023-05-09T11:40:21;100385.66;;;21.14;37.32
15382;BME280;7789;51.364;12.358;2023-05-09T11:45:27;100379.72;;;21.12;37.76
15382;BME280;7789;51.364;12.358;2023-05-09T11:50:31;100368.13;;;21.26;37.48
15382;BME280;7789;51.364;12.358;2023-05-09T11:55:36;100366.53;;;21.32;37.00
15382;BME280;7789;51.364;12.358;2023-05-09T12:00:44;100354.47;;;21.36;35.87
15382;BME280;7789;51.364;12.358;2023-05-09T12:05:48;100348.78;;;21.39;36.05
15382;BME280;7789;51.364;12.358;2023-05-09T12:10:51;100331.09;;;21.25;35.92
15382;BME280;7789;51.364;12.358;2023-05-09T12:16:00;100312.09;;;21.28;36.92
15382;BME280;7789;51.364;12.358;2023-05-09T12:21:04;100312.66;;;21.23;36.76
15382;BME280;7789;51.364;12.358;2023-05-09T12:26:08;100307.34;;;21.23;37.38
15382;BME280;7789;51.364;12.358;2023-05-09T12:31:13;100295.91;;;21.23;36.92
15382;BME280;7789;51.364;12.358;2023-05-09T12:36:17;100291.38;;;21.23;36.60
15382;BME280;7789;51.364;12.358;2023-05-09T12:41:20;100274.41;;;21.24;36.65
15382;BME280;7789;51.364;12.358;2023-05-09T12:46:52;100273.66;;;21.30;36.78
15382;BME280;7789;51.364;12.358;2023-05-09T12:51:56;100262.34;;;21.22;36.71
15382;BME280;7789;51.364;12.358;2023-05-09T12:57:02;100250.81;;;21.15;35.94
15382;BME280;7789;51.364;12.358;2023-05-09T13:02:07;100234.72;;;21.23;35.58
15382;BME280;7789;51.364;12.358;2023-05-09T13:07:11;100231.22;;;21.22;35.31
15382;BME280;7789;51.364;12.358;2023-05-09T13:12:14;100210.81;;;21.29;35.73
15382;BME280;7789;51.364;12.358;2023-05-09T13:17:19;100211.06;;;21.41;34.46
15382;BME280;7789;51.364;12.358;2023-05-09T13:22:23;100190.19;;;21.38;33.92
15382;BME280;7789;51.364;12.358;2023-05-09T13:27:27;100181.84;;;21.47;33.31
15382;BME280;7789;51.364;12.358;2023-05-09T13:32:32;100180.19;;;21.46;32.96
15382;BME280;7789;51.364;12.358;2023-05-09T13:37:36;100180.19;;;21.53;31.40
15382;BME280;7789;51.364;12.358;2023-05-09T13:42:39;100169.84;;;21.64;30.97
15382;BME280;7789;51.364;12.358;2023-05-09T13:47:44;100159.84;;;21.73;29.39
15382;BME280;7789;51.364;12.358;2023-05-09T13:52:47;100158.78;;;21.67;29.53
15382;BME280;7789;51.364;12.358;2023-05-09T13:57:51;100158.19;;;21.72;28.91
15382;BME280;7789;51.364;12.358;2023-05-09T14:02:56;100138.09;;;21.69;28.55
15382;BME280;7789;51.364;12.358;2023-05-09T14:07:59;100131.97;;;21.75;28.40
15382;BME280;7789;51.364;12.358;2023-05-09T14:13:03;100127.88;;;21.73;28.96
15382;BME280;7789;51.364;12.358;2023-05-09T14:18:08;100124.19;;;21.67;28.51
15382;BME280;7789;51.364;12.358;2023-05-09T14:23:13;100128.25;;;21.70;28.57
15382;BME280;7789;51.364;12.358;2023-05-09T14:28:17;100121.53;;;21.67;27.98
15382;BME280;7789;51.364;12.358;2023-05-09T14:33:21;100106.19;;;21.76;27.47
15382;BME280;7789;51.364;12.358;2023-05-09T14:38:25;100121.75;;;21.79;27.10
15382;BME280;7789;51.364;12.358;2023-05-09T14:43:28;100111.91;;;21.73;26.88
15382;BME280;7789;51.364;12.358;2023-05-09T14:48:33;100113.31;;;21.69;26.12
15382;BME280;7789;51.364;12.358;2023-05-09T14:53:40;100108.41;;;21.72;25.72
15382;BME280;7789;51.364;12.358;2023-05-09T14:58:43;100106.16;;;21.63;25.76
15382;BME280;7789;51.364;12.358;2023-05-09T15:03:47;100099.16;;;21.62;25.12
15382;BME280;7789;51.364;12.358;2023-05-09T15:08:51;100112.47;;;21.55;25.33
15382;BME280;7789;51.364;12.358;2023-05-09T15:13:54;100092.78;;;21.50;24.87
15382;BME280;7789;51.364;12.358;2023-05-09T15:18:59;100086.44;;;21.38;24.80
15382;BME280;7789;51.364;12.358;2023-05-09T15:24:06;100081.13;;;21.38;25.51
15382;BME280;7789;51.364;12.358;2023-05-09T15:29:09;100074.78;;;21.39;26.25
15382;BME280;7789;51.364;12.358;2023-05-09T15:34:14;100071.69;;;21.35;25.98
15382;BME280;7789;51.364;12.358;2023-05-09T15:39:26;100069.00;;;21.29;25.05
15382;BME280;7789;51.364;12.358;2023-05-09T15:44:37;100059.81;;;21.25;26.12
15382;BME280;7789;51.364;12.358;2023-05-09T15:49:45;100054.25;;;21.26;26.48
15382;BME280;7789;51.364;12.358;2023-05-09T15:54:49;100046.28;;;21.26;26.54
15382;BME280;7789;51.364;12.358;2023-05-09T15:59:53;100046.50;;;21.25;26.59
15382;BME280;7789;51.364;12.358;2023-05-09T16:04:58;100052.41;;;21.20;26.60
15382;BME280;7789;51.364;12.358;2023-05-09T16:10:02;100029.91;;;21.16;27.18
15382;BME280;7789;51.364;12.358;2023-05-09T16:15:06;100028.69;;;21.12;27.16
15382;BME280;7789;51.364;12.358;2023-05-09T16:20:15;100020.28;;;21.09;27.54
15382;BME280;7789;51.364;12.358;2023-05-09T16:25:19;100007.16;;;21.01;28.21
15382;BME280;7789;51.364;12.358;2023-05-09T16:30:25;100005.31;;;20.95;28.16
15382;BME280;7789;51.364;12.358;2023-05-09T16:35:30;99993.22;;;20.92;28.14
15382;BME280;7789;51.364;12.358;2023-05-09T16:40:34;99995.06;;;20.85;28.53
15382;BME280;7789;51.364;12.358;2023-05-09T16:45:38;99977.25;;;20.79;28.99
15382;BME280;7789;51.364;12.358;2023-05-09T16:50:42;99973.31;;;20.75;29.55
15382;BME280;7789;51.364;12.358;2023-05-09T16:55:46;99962.47;;;20.70;30.13
15382;BME280;7789;51.364;12.358;2023-05-09T17:00:49;99953.88;;;20.62;30.83
15382;BME280;7789;51.364;12.358;2023-05-09T17:05:54;99936.28;;;20.55;31.85
15382;BME280;7789;51.364;12.358;2023-05-09T17:10:57;99946.06;;;20.48;32.19
15382;BME280;7789;51.364;12.358;2023-05-09T17:16:02;99920.50;;;20.40;32.56
15382;BME280;7789;51.364;12.358;2023-05-09T17:21:07;99936.81;;;20.31;32.91
15382;BME280;7789;51.364;12.358;2023-05-09T17:26:13;99931.66;;;20.23;33.34
15382;BME280;7789;51.364;12.358;2023-05-09T17:31:17;99934.47;;;20.15;33.57
15382;BME280;7789;51.364;12.358;2023-05-09T17:36:22;99929.31;;;20.07;34.12
15382;BME280;7789;51.364;12.358;2023-05-09T17:41:29;99928.00;;;19.96;34.32
15382;BME280;7789;51.364;12.358;2023-05-09T17:46:33;99918.38;;;19.89;34.76
15382;BME280;7789;51.364;12.358;2023-05-09T17:51:38;99923.22;;;19.79;35.68
15382;BME280;7789;51.364;12.358;2023-05-09T17:56:41;99925.22;;;19.70;36.31
15382;BME280;7789;51.364;12.358;2023-05-09T18:01:44;99924.34;;;19.63;37.12
15382;BME280;7789;51.364;12.358;2023-05-09T18:06:49;99921.22;;;19.53;37.14
15382;BME280;7789;51.364;12.358;2023-05-09T18:11:53;99922.56;;;19.43;37.60
15382;BME280;7789;51.364;12.358;2023-05-09T18:16:56;99910.28;;;19.35;37.81
15382;BME280;7789;51.364;12.358;2023-05-09T18:22:01;99911.63;;;19.25;38.76
15382;BME280;7789;51.364;12.358;2023-05-09T18:27:04;99910.25;;;19.14;38.95
15382;BME280;7789;51.364;12.358;2023-05-09T18:32:07;99911.41;;;19.05;39.58
15382;BME280;7789;51.364;12.358;2023-05-09T18:37:13;99911.91;;;18.94;39.70
15382;BME280;7789;51.364;12.358;2023-05-09T18:42:17;99914.09;;;18.84;40.35
15382;BME280;7789;51.364;12.358;2023-05-09T18:47:22;99916.03;;;18.76;40.44
15382;BME280;7789;51.364;12.358;2023-05-09T18:52:26;99918.16;;;18.66;41.02
15382;BME280;7789;51.364;12.358;2023-05-09T18:57:32;99918.47;;;18.57;41.37
15382;BME280;7789;51.364;12.358;2023-05-09T19:02:35;99922.41;;;18.46;41.51
15382;BME280;7789;51.364;12.358;2023-05-09T19:07:40;99922.50;;;18.38;41.86
15382;BME280;7789;51.364;12.358;2023-05-09T19:12:43;99924.00;;;18.26;41.94
15382;BME280;7789;51.364;12.358;2023-05-09T19:17:47;99914.97;;;18.21;42.71
15382;BME280;7789;51.364;12.358;2023-05-09T19:22:53;99924.19;;;18.10;43.23
15382;BME280;7789;51.364;12.358;2023-05-09T19:27:56;99914.25;;;17.98;43.90
15382;BME280;7789;51.364;12.358;2023-05-09T19:32:59;99919.84;;;17.88;44.71
15382;BME280;7789;51.364;12.358;2023-05-09T19:38:06;99914.16;;;17.77;45.37
15382;BME280;7789;51.364;12.358;2023-05-09T19:43:12;99911.34;;;17.64;45.83
15382;BME280;7789;51.364;12.358;2023-05-09T19:48:15;99897.72;;;17.52;46.70
15382;BME280;7789;51.364;12.358;2023-05-09T19:53:20;99899.00;;;17.42;47.38
15382;BME280;7789;51.364;12.358;2023-05-09T19:58:24;99885.66;;;17.35;47.48
15382;BME280;7789;51.364;12.358;2023-05-09T20:03:28;99894.66;;;17.26;48.16
15382;BME280;7789;51.364;12.358;2023-05-09T20:08:33;99889.28;;;17.20;48.69
15382;BME280;7789;51.364;12.358;2023-05-09T20:13:43;99879.44;;;17.14;48.80
15382;BME280;7789;51.364;12.358;2023-05-09T20:18:48;99880.50;;;17.05;48.79
15382;BME280;7789;51.364;12.358;2023-05-09T20:23:54;99883.00;;;16.98;49.19
15382;BME280;7789;51.364;12.358;2023-05-09T20:28:58;99878.47;;;16.92;49.31
15382;BME280;7789;51.364;12.358;2023-05-09T20:34:03;99876.34;;;16.88;49.28
15382;BME280;7789;51.364;12.358;2023-05-09T20:39:07;99874.59;;;16.80;49.42
15382;BME280;7789;51.364;12.358;2023-05-09T20:44:13;99872.19;;;16.71;49.67
15382;BME280;7789;51.364;12.358;2023-05-09T20:49:17;99861.69;;;16.63;49.76
15382;BME280;7789;51.364;12.358;2023-05-09T20:54:21;99854.00;;;16.54;50.56
15382;BME280;7789;51.364;12.358;2023-05-09T20:59:26;99853.91;;;16.47;50.31
15382;BME280;7789;51.364;12.358;2023-05-09T21:04:29;99855.56;;;16.40;50.86
15382;BME280;7789;51.364;12.358;2023-05-09T21:09:35;99849.50;;;16.32;51.34
15382;BME280;7789;51.364;12.358;2023-05-09T21:14:39;99844.28;;;16.24;51.35
15382;BME280;7789;51.364;12.358;2023-05-09T21:19:42;99834.59;;;16.16;51.68
15382;BME280;7789;51.364;12.358;2023-05-09T21:24:47;99828.38;;;16.09;51.25
15382;BME280;7789;51.364;12.358;2023-05-09T21:29:51;99825.13;;;15.99;51.61
15382;BME280;7789;51.364;12.358;2023-05-09T21:34:56;99827.00;;;15.91;52.07
15382;BME280;7789;51.364;12.358;2023-05-09T21:40:01;99828.50;;;15.85;52.36
15382;BME280;7789;51.364;12.358;2023-05-09T21:45:13;99828.53;;;15.77;52.75
15382;BME280;7789;51.364;12.358;2023-05-09T21:50:17;99832.84;;;15.70;52.52
15382;BME280;7789;51.364;12.358;2023-05-09T21:55:22;99824.97;;;15.62;53.16
15382;BME280;7789;51.364;12.358;2023-05-09T22:00:25;99829.28;;;15.55;53.27
15382;BME280;7789;51.364;12.358;2023-05-09T22:05:29;99821.75;;;15.44;53.40
15382;BME280;7789;51.364;12.358;2023-05-09T22:10:34;99803.81;;;15.40;53.67
15382;BME280;7789;51.364;12.358;2023-05-09T22:15:38;99805.97;;;15.28;54.34
15382;BME280;7789;51.364;12.358;2023-05-09T22:20:41;99798.56;;;15.24;54.12
15382;BME280;7789;51.364;12.358;2023-05-09T22:25:46;99804.66;;;15.16;54.43
15382;BME280;7789;51.364;12.358;2023-05-09T22:30:50;99804.84;;;15.07;54.98
15382;BME280;7789;51.364;12.358;2023-05-09T22:35:53;99797.97;;;14.98;55.04
15382;BME280;7789;51.364;12.358;2023-05-09T22:40:58;99794.19;;;14.92;55.49
15382;BME280;7789;51.364;12.358;2023-05-09T22:46:01;99789.91;;;14.83;56.29
15382;BME280;7789;51.364;12.358;2023-05-09T22:51:05;99788.13;;;14.76;56.68
15382;BME280;7789;51.364;12.358;2023-05-09T22:56:09;99787.94;;;14.70;56.42
15382;BME280;7789;51.364;12.358;2023-05-09T23:01:13;99781.22;;;14.59;56.94
15382;BME280;7789;51.364;12.358;2023-05-09T23:06:17;99775.47;;;14.48;57.38
15382;BME280;7789;51.364;12.358;2023-05-09T23:11:22;99765.63;;;14.42;57.93
15382;BME280;7789;51.364;12.358;2023-05-09T23:16:26;99769.88;;;14.35;58.40
15382;BME280;7789;51.364;12.358;2023-05-09T23:21:29;99767.06;;;14.28;58.86
15382;BME280;7789;51.364;12.358;2023-05-09T23:26:34;99761.31;;;14.17;59.48
15382;BME280;7789;51.364;12.358;2023-05-09T23:31:38;99755.19;;;14.08;59.27
15382;BME280;7789;51.364;12.358;2023-05-09T23:36:41;99755.03;;;14.02;59.73
15382;BME280;7789;51.364;12.358;2023-05-09T23:41:46;99744.84;;;13.99;60.07
15382;BME280;7789;51.364;12.358;2023-05-09T23:46:49;99746.31;;;13.93;60.35
15382;BME280;7789;51.364;12.358;2023-05-09T23:51:53;99743.53;;;13.95;60.48
15382;BME280;7789;51.364;12.358;2023-05-09T23:56:57;99732.19;;;13.86;60.79
